Address 0xfea8a1235a4b2f2dc5f70acdfd3c6e0e86a17fb7

 
 
Txn Hash Method
Block
From
To
Value [Txn Fee]
0xdfe6a392e454575ef40377e5c95927642634872106f1e1886fb223386e9766c6Approve111045872021-09-21 9:52:464 days 21 hrs ago0xfea8a1235a4b2f2dc5f70acdfd3c6e0e86a17fb7OUT 0xab57aef3601cad382aa499a6ae2018a69aad9cf00 BNB0.000122235
0x1877ef47efa5497f51b007d119bfe6bcf6c98eacb1ef9262d8a0de586af42faaApprove103060222021-08-24 10:33:3532 days 21 hrs ago0xfea8a1235a4b2f2dc5f70acdfd3c6e0e86a17fb7OUT 0xab57aef3601cad382aa499a6ae2018a69aad9cf00 BNB0.000122235
0xbd380ec34a626bc0d27a245764c42f11d5b1bb92bc616fc80620c484f98533e6Approve103060102021-08-24 10:32:5932 days 21 hrs ago0xfea8a1235a4b2f2dc5f70acdfd3c6e0e86a17fb7OUT 0xab57aef3601cad382aa499a6ae2018a69aad9cf00 BNB0.000122235
0x067f9c900548f39d8ab2a042dfb2e998ae1601949381545905bf488637202ef0Approve103057042021-08-24 10:17:4032 days 21 hrs ago0xfea8a1235a4b2f2dc5f70acdfd3c6e0e86a17fb7OUT 0x585de5430f47aba099bebd21ef133272c38db7a60 BNB0.00022531
0x531d8f15476a45f615f27fbe5785ed908f8a9ea9d4ce72b0bdb071566f940366Approve103054232021-08-24 10:03:3732 days 21 hrs ago0xfea8a1235a4b2f2dc5f70acdfd3c6e0e86a17fb7OUT Minereum BSC: MNEB Token0 BNB0.000240635
0xbbc54ba415b413540c0c63a3e13c9d1070da1cbdfb5c7f2dbe68d21479dadae7Approve103052082021-08-24 9:52:5232 days 21 hrs ago0xfea8a1235a4b2f2dc5f70acdfd3c6e0e86a17fb7OUT Fake_Phishing610 BNB0.000222515
0x21fdef6359631ec3093c992e088e9442499c025bfd89e0490e35853adb52bb36Transfer70084152021-04-30 6:23:54149 days 1 hr ago0xfea8a1235a4b2f2dc5f70acdfd3c6e0e86a17fb7OUT CleanOcean: CLEANOCEAN Token0 BNB0.00044114
0x1d35a9010f8f93ca9e409eaa2609901cfbb9d53731f87ea47d844238fee28065Transfer64994342021-04-12 11:16:43166 days 20 hrs ago0xfea8a1235a4b2f2dc5f70acdfd3c6e0e86a17fb7OUT0x6b3dd40c1da4fc02fde0428b3a084888882ffd7f0.03 BNB0.000105
0x42a749b753b2fd5ed3ce5214cab7cdce0117d739a19a41e0edc1f88f99ccbbd5Transfer64901812021-04-12 3:34:00167 days 4 hrs ago0xb6d3ce94af7ba7315ac16c5e4c28e076b1f29bc4 IN 0xfea8a1235a4b2f2dc5f70acdfd3c6e0e86a17fb70.03 BNB0.000105
0x6a78fec10c0dc394ba7355d7ffcca3b1d5f128c4ef8425b5fd1a36f69759afedTransfer64867922021-04-12 0:44:08167 days 6 hrs ago0xfea8a1235a4b2f2dc5f70acdfd3c6e0e86a17fb7OUT0x6b3dd40c1da4fc02fde0428b3a084888882ffd7f0.664061978429741 BNB0.000105
0x2a102c52eae562f01f914801a8c1ac2aca0cdd22a6b7bb13adff7327311e8498Swap Exact Token...64867562021-04-12 0:42:20167 days 6 hrs ago0xfea8a1235a4b2f2dc5f70acdfd3c6e0e86a17fb7OUT PancakeSwap: Router0 BNB0.00051099
0x4a84f6640fe93c571ac075840df4e0db4adb00fed9fac598745477c90227ae28Approve64867462021-04-12 0:41:50167 days 6 hrs ago0xfea8a1235a4b2f2dc5f70acdfd3c6e0e86a17fb7OUT Binance: BUSD Stablecoin0 BNB0.00022203
0x5b951cfa1e297a7a7ab10106e2409dd1a16f85801482e8b9850fc57892482c8bTransfer64601142021-04-11 2:28:04168 days 5 hrs ago0x050eb3cd7e6887f85a5a56915a7b88dfa3faa8cf IN 0xfea8a1235a4b2f2dc5f70acdfd3c6e0e86a17fb70.01 BNB0.000105
0x07a55633e06882519518897eed9eaf6b3205504f1efdc6884a322b41bed660f8Transfer64600382021-04-11 2:24:16168 days 5 hrs ago0x8d2f8b21d5b67083d7904332e46e5c8154aca1e2 IN 0xfea8a1235a4b2f2dc5f70acdfd3c6e0e86a17fb70.002 BNB0.000105
0xaf9bb304dd9b78a82a4c556fec7bf469b8e1f2a36105b7b6546b0de443871beaTransfer64600292021-04-11 2:23:49168 days 5 hrs ago0x7bd39e094cb059f234e4e6d7326c0f3fad252369 IN 0xfea8a1235a4b2f2dc5f70acdfd3c6e0e86a17fb70.001 BNB0.000105
0x29baff280e59b015c9bb3c440b6c4f3869e7d72c890f35b6d310c8087481e7ceTransfer64487152021-04-10 16:58:07168 days 14 hrs ago0xf4a5931a02a98a7ee27d06089f4f87513b554df2 IN 0xfea8a1235a4b2f2dc5f70acdfd3c6e0e86a17fb70.008678895 BNB0.000105
0xb9fee6e12bcf4eb10925d0d0f8f902aaab8489f90a00bc2868c7d1a46309e53fTransfer64485272021-04-10 16:48:43168 days 14 hrs ago0x6c866ff3e6faa46dc4c5136a5feef0ee65021ebd IN 0xfea8a1235a4b2f2dc5f70acdfd3c6e0e86a17fb70.2 BNB0.000105
0x2cdd4e15be5e9c334793fbd79406d5486dee6268fc746748c4f987ff39640363Transfer64481432021-04-10 16:29:29168 days 15 hrs ago0xa96eb2155838a7d85cbee1f772c403de58d18df7 IN 0xfea8a1235a4b2f2dc5f70acdfd3c6e0e86a17fb70.02 BNB0.000105
0xa4ec05aaea628defb0d8309e07f5aaceaf8ae63556822cb68236c58afc6cec3eTransfer64477162021-04-10 16:08:08168 days 15 hrs ago0x5e3dbecdc7d3ccecd4dd88d8b4234ccc9594b9e2 IN 0xfea8a1235a4b2f2dc5f70acdfd3c6e0e86a17fb70.008 BNB0.000105
0x39fb4f29d2bf71af9c65634165c6d33ebe4fd55609db4777383ac3cde8971b53Transfer63904812021-04-08 16:00:44170 days 15 hrs ago0xfea8a1235a4b2f2dc5f70acdfd3c6e0e86a17fb7OUT0xf93ac60a2f2bc178e93c4548b25ee72bb46820c10.12 BNB0.000105
0x033ee8bf9141cfff2b9559d514f358a287be6c27a57f02d988f858bae0419900Transfer63866512021-04-08 12:19:37170 days 19 hrs ago0x6c866ff3e6faa46dc4c5136a5feef0ee65021ebd IN 0xfea8a1235a4b2f2dc5f70acdfd3c6e0e86a17fb70.2 BNB0.000105
0xe77b14a2716826541c3499ef71cb3e7b6387925f26352aa9621aeb3d3ea9b77dTransfer63839742021-04-08 10:01:10170 days 21 hrs ago0x4b2f654a176acf7afbdc7941b0b670cf8774221b IN 0xfea8a1235a4b2f2dc5f70acdfd3c6e0e86a17fb70.2 BNB0.000105
0x6374b7546ef7c071cab291e6d897b1b19962595ab8b0577ce7bb1a819fea656bTransfer63838382021-04-08 9:52:41170 days 21 hrs ago0x6b3dd40c1da4fc02fde0428b3a084888882ffd7f IN 0xfea8a1235a4b2f2dc5f70acdfd3c6e0e86a17fb70.03 BNB0.000105
0xaf2964f91248819cc8d61dbf5f5d1d8e2aa8c435177d498f22d39644870d4509Transfer63832162021-04-08 9:15:05170 days 22 hrs ago0xe97cc99d7c51dec09700745ddff8b80d3a149c4f IN 0xfea8a1235a4b2f2dc5f70acdfd3c6e0e86a17fb70.03 BNB0.000105
0x13cf3da506ea5265fe6ace20c575e9a18bf6e65ddca396dc487391d1c3939257Transfer63804852021-04-08 6:54:02171 days 47 mins ago0xa002c371ab9079a2d34a6caade24cabc42841841 IN 0xfea8a1235a4b2f2dc5f70acdfd3c6e0e86a17fb70.000449249585724 BNB0.000105
[ Download CSV Export 
Latest 1 internal transaction
Parent Txn Hash Block From To Value
0x2a102c52eae562f01f914801a8c1ac2aca0cdd22a6b7bb13adff7327311e849864867562021-04-12 0:42:20167 days 6 hrs ago PancakeSwap: Router0xfea8a1235a4b2f2dc5f70acdfd3c6e0e86a17fb70.019029087085209697 BNB
[ Download CSV Export 
Loading

Contract Name:
0 BNB

Compiler Version
0

Optimization Enabled:
0 BNB

Other Settings:
-NA-
Block Transaction Gas Used Reward
Age Block Fee Address BC Fee Address Voting Power Jailed Incoming
Block Uncle Number Difficulty Gas Used Reward
Loading
Loading
Make sure to use the "Vote Down" button for any spammy posts, and the "Vote Up" for interesting conversations.